Time;durP1;ratioP1;P1;durP2;ratioP2;P2;SDS_P1;SDS_P2;PMS_P1;PMS_P2;Temp;Humidity;BMP_temperature;BMP_pressure;BME280_temperature;BME280_humidity;BME280_pressure;Samples;Min_cycle;Max_cycle;Signal;HPM_P1;HPM_P2
2023/06/23 00:01:01;;;;;;;0.80;0.70;;;22.50;59.10;;;;;;8298094;28;20042;-52
2023/06/23 00:05:03;;;;;;;;;;;22.50;59.10;;;;;;8298871;28;20026;-52
2023/06/23 00:09:13;;;;;;;0.90;0.70;;;22.50;59.10;;;;;;8297581;28;19936;-52
2023/06/23 00:13:14;;;;;;;0.68;0.60;;;22.50;59.10;;;;;;8298480;28;20481;-52
2023/06/23 00:17:15;;;;;;;0.70;0.70;;;22.50;59.20;;;;;;8295994;28;20030;-51
2023/06/23 00:21:16;;;;;;;0.50;0.50;;;22.40;59.10;;;;;;8298436;28;20117;-49
2023/06/23 00:25:16;;;;;;;0.50;0.50;;;22.50;59.20;;;;;;8296690;28;20100;-51
2023/06/23 00:29:17;;;;;;;1.02;0.70;;;22.40;59.20;;;;;;8297382;28;20071;-51
2023/06/23 00:33:18;;;;;;;0.70;0.70;;;22.40;59.20;;;;;;8297268;28;20038;-51
2023/06/23 00:37:19;;;;;;;;;;;22.40;59.20;;;;;;8297831;28;20092;-52
2023/06/23 00:41:20;;;;;;;0.83;0.83;;;22.40;59.20;;;;;;8297134;28;19910;-52
2023/06/23 00:45:21;;;;;;;1.00;0.63;;;22.40;59.20;;;;;;8296614;28;20030;-52
2023/06/23 00:49:22;;;;;;;0.73;0.60;;;22.40;59.20;;;;;;8297256;28;20065;-52
2023/06/23 00:53:23;;;;;;;0.60;0.60;;;22.50;59.20;;;;;;8295996;28;20038;-52
2023/06/23 00:57:24;;;;;;;0.60;0.50;;;22.40;59.20;;;;;;8296832;28;20400;-52
2023/06/23 01:01:25;;;;;;;0.60;0.60;;;22.40;59.20;;;;;;8310811;28;20088;-51
2023/06/23 01:05:39;;;;;;;0.77;0.68;;;22.40;59.20;;;;;;8296462;28;20057;-52
2023/06/23 01:09:50;;;;;;;0.52;0.52;;;22.40;59.20;;;;;;8295635;28;20492;-49
2023/06/23 01:13:57;;;;;;;0.55;0.50;;;22.50;59.20;;;;;;8295467;28;20080;-51
2023/06/23 01:18:30;;;;;;;0.70;0.60;;;22.40;59.20;;;;;;8296784;28;20070;-52
2023/06/23 01:22:41;;;;;;;0.50;0.50;;;22.40;59.20;;;;;;8295531;28;20053;-52
2023/06/23 01:27:15;;;;;;;0.65;0.60;;;22.40;59.20;;;;;;8296143;28;20044;-52
2023/06/23 01:31:24;;;;;;;0.60;0.60;;;22.40;59.20;;;;;;8297485;28;20038;-52
2023/06/23 01:35:31;;;;;;;0.65;0.65;;;22.40;59.20;;;;;;8294443;28;20119;-52
2023/06/23 01:39:36;;;;;;;0.50;0.50;;;22.40;59.20;;;;;;8300273;28;20492;-51
2023/06/23 01:43:37;;;;;;;0.95;0.70;;;22.40;59.20;;;;;;8302704;28;20036;-51
2023/06/23 01:47:40;;;;;;;0.40;0.40;;;22.40;59.20;;;;;;8303027;28;20038;-52
2023/06/23 01:51:44;;;;;;;0.70;0.70;;;22.40;59.20;;;;;;8303100;28;20069;-52
2023/06/23 01:55:45;;;;;;;0.70;0.52;;;22.40;59.20;;;;;;8301749;28;20026;-50
2023/06/23 01:59:47;;;;;;;0.60;0.60;;;22.40;59.20;;;;;;8302857;28;20115;-51
2023/06/23 02:03:49;;;;;;;0.60;0.60;;;22.40;59.20;;;;;;8301619;28;20080;-52
2023/06/23 02:07:52;;;;;;;0.65;0.65;;;22.40;59.20;;;;;;8302359;28;20049;-51
2023/06/23 02:11:54;;;;;;;0.80;0.68;;;22.40;59.20;;;;;;8301130;28;20036;-51
2023/06/23 02:15:56;;;;;;;0.57;0.40;;;22.40;59.20;;;;;;8302395;28;20046;-51
2023/06/23 02:19:59;;;;;;;0.50;0.50;;;22.40;59.20;;;;;;8300524;28;20050;-51
2023/06/23 02:24:04;;;;;;;0.40;0.40;;;22.40;59.30;;;;;;8300973;28;20045;-52
2023/06/23 02:28:06;;;;;;;0.60;0.60;;;22.40;59.20;;;;;;8302400;28;20113;-52
2023/06/23 02:32:08;;;;;;;0.73;0.60;;;22.40;59.20;;;;;;8300501;28;20030;-52
2023/06/23 02:36:10;;;;;;;0.57;0.57;;;22.40;59.20;;;;;;8301855;28;20053;-51
2023/06/23 02:40:17;;;;;;;0.90;0.75;;;22.40;59.20;;;;;;8300265;28;20036;-52
2023/06/23 02:44:23;;;;;;;0.80;0.60;;;22.40;59.20;;;;;;8317006;28;20096;-51
2023/06/23 02:48:30;;;;;;;0.60;0.60;;;22.40;59.20;;;;;;8300476;28;20092;-51
2023/06/23 02:52:36;;;;;;;0.80;0.55;;;22.40;59.20;;;;;;8299506;28;20030;-53
2023/06/23 02:56:41;;;;;;;0.75;0.50;;;22.40;59.30;;;;;;8301241;28;20034;-50
2023/06/23 03:00:44;;;;;;;0.82;0.70;;;22.40;59.20;;;;;;8299390;28;20110;-50
2023/06/23 03:04:46;;;;;;;0.50;0.50;;;22.40;59.20;;;;;;8300642;28;20025;-51
2023/06/23 03:08:50;;;;;;;0.60;0.55;;;22.40;59.20;;;;;;8299254;28;20564;-51
2023/06/23 03:12:51;;;;;;;0.60;0.60;;;22.40;59.20;;;;;;8300293;28;20026;-50
2023/06/23 03:17:00;;;;;;;0.70;0.70;;;22.40;59.70;;;;;;8298335;28;20074;-51
2023/06/23 03:21:06;;;;;;;0.70;0.70;;;22.40;59.30;;;;;;8299498;28;20472;-52
2023/06/23 03:25:12;;;;;;;0.55;0.55;;;22.40;59.30;;;;;;8299921;28;20063;-52
2023/06/23 03:29:14;;;;;;;0.70;0.70;;;22.40;59.20;;;;;;8298525;28;20037;-52
2023/06/23 03:33:22;;;;;;;0.60;0.60;;;22.30;59.20;;;;;;8299565;28;20101;-52
2023/06/23 03:37:26;;;;;;;0.63;0.60;;;22.40;59.20;;;;;;8298510;28;20033;-52
2023/06/23 03:41:29;;;;;;;0.82;0.80;;;22.40;59.30;;;;;;8299401;28;20042;-52
2023/06/23 03:45:33;;;;;;;0.70;0.70;;;22.40;59.20;;;;;;8298554;28;20685;-51
2023/06/23 03:49:38;;;;;;;0.65;0.60;;;22.40;59.30;;;;;;8298844;28;20069;-51
2023/06/23 03:53:40;;;;;;;0.75;0.70;;;22.40;59.20;;;;;;8299264;28;20029;-51
2023/06/23 03:57:43;;;;;;;0.77;0.60;;;22.40;59.40;;;;;;8298048;28;20104;-50
2023/06/23 04:01:46;;;;;;;0.70;0.70;;;22.40;59.30;;;;;;8299131;28;20034;-51
2023/06/23 04:05:48;;;;;;;1.10;0.80;;;22.40;59.30;;;;;;8297451;28;20478;-51
2023/06/23 04:09:51;;;;;;;0.70;0.65;;;22.40;59.30;;;;;;8297934;28;20495;-52
2023/06/23 04:13:55;;;;;;;0.85;0.77;;;22.30;59.20;;;;;;8297378;28;20025;-52
2023/06/23 04:17:58;;;;;;;0.80;0.70;;;22.40;59.20;;;;;;8313725;28;20065;-49
2023/06/23 04:22:00;;;;;;;1.00;0.60;;;22.40;59.30;;;;;;8296220;28;20037;-52
2023/06/23 04:26:04;;;;;;;1.48;0.65;;;22.40;59.20;;;;;;8297474;28;20060;-52
2023/06/23 04:30:07;;;;;;;0.80;0.68;;;22.40;59.30;;;;;;8298294;28;20033;-51
2023/06/23 04:34:08;;;;;;;0.70;0.70;;;22.40;59.30;;;;;;8296789;28;20101;-52
2023/06/23 04:38:14;;;;;;;0.70;0.60;;;22.40;59.30;;;;;;8297894;28;20026;-50
2023/06/23 04:42:21;;;;;;;1.23;0.85;;;22.40;59.30;;;;;;8296514;28;20487;-51
2023/06/23 04:46:26;;;;;;;0.70;0.70;;;22.30;59.20;;;;;;8297578;28;20033;-53
2023/06/23 04:50:34;;;;;;;0.80;0.70;;;22.30;59.20;;;;;;8296755;28;20034;-51
2023/06/23 04:54:41;;;;;;;0.60;0.60;;;22.40;59.30;;;;;;8296884;28;20034;-53
2023/06/23 04:58:45;;;;;;;0.68;0.63;;;22.30;59.20;;;;;;8297705;28;20065;-52
2023/06/23 05:02:48;;;;;;;0.50;0.50;;;22.30;59.20;;;;;;8295738;28;20087;-53
2023/06/23 05:06:50;;;;;;;0.45;0.40;;;22.40;59.30;;;;;;8297008;28;20381;-51
2023/06/23 05:10:52;;;;;;;1.85;0.80;;;22.30;59.20;;;;;;8295749;28;20057;-50
2023/06/23 05:14:55;;;;;;;0.70;0.60;;;22.30;59.20;;;;;;8296214;28;20030;-52
2023/06/23 05:18:58;;;;;;;0.70;0.70;;;22.30;59.20;;;;;;8296363;28;20472;-50
2023/06/23 05:23:02;;;;;;;0.80;0.60;;;22.40;59.20;;;;;;8296432;28;20045;-51
2023/06/23 05:27:07;;;;;;;0.57;0.57;;;22.40;59.20;;;;;;8296663;28;20102;-50
2023/06/23 05:31:09;;;;;;;0.80;0.70;;;22.30;59.20;;;;;;8295460;28;20124;-51
2023/06/23 05:35:11;;;;;;;0.80;0.80;;;22.30;59.20;;;;;;8296816;28;20036;-51
2023/06/23 05:39:16;;;;;;;1.13;0.80;;;22.30;59.20;;;;;;8295402;28;20030;-51
2023/06/23 05:43:17;;;;;;;0.52;0.52;;;22.40;59.30;;;;;;8296398;28;20045;-53
2023/06/23 05:47:22;;;;;;;0.95;0.77;;;22.30;59.20;;;;;;8295157;28;20042;-52
2023/06/23 05:51:28;;;;;;;0.68;0.65;;;22.30;59.20;;;;;;8295139;28;20034;-48
2023/06/23 05:55:32;;;;;;;0.70;0.60;;;22.30;59.30;;;;;;8294641;28;20018;-49
2023/06/23 05:59:44;;;;;;;0.60;0.60;;;22.30;59.20;;;;;;8294006;28;20033;-48
2023/06/23 06:03:48;;;;;;;0.80;0.75;;;22.30;59.20;;;;;;8294473;28;20041;-49
2023/06/23 06:07:50;;;;;;;0.90;0.60;;;22.30;59.20;;;;;;8293672;28;20085;-49
2023/06/23 06:11:52;;;;;;;0.70;0.70;;;22.30;59.20;;;;;;8293695;28;20030;-51
2023/06/23 06:15:54;;;;;;;0.80;0.80;;;22.40;59.30;;;;;;8293695;28;20061;-52
2023/06/23 06:19:59;;;;;;;0.65;0.65;;;22.30;59.20;;;;;;8296072;28;20038;-50
2023/06/23 06:24:01;;;;;;;0.80;0.80;;;22.40;59.30;;;;;;8297171;28;20092;-50
2023/06/23 06:28:06;;;;;;;0.93;0.70;;;22.30;59.20;;;;;;8301336;28;20092;-52
2023/06/23 06:32:08;;;;;;;0.70;0.70;;;22.30;59.20;;;;;;8302036;28;20030;-52
2023/06/23 06:36:09;;;;;;;0.75;0.75;;;22.30;59.20;;;;;;8300222;28;20080;-51
2023/06/23 06:40:11;;;;;;;;;;;22.40;59.20;;;;;;8300744;28;20369;-53
2023/06/23 06:44:12;;;;;;;1.30;0.70;;;22.30;59.20;;;;;;8300239;28;19905;-50
2023/06/23 06:48:13;;;;;;;0.88;0.60;;;22.30;59.20;;;;;;8301425;28;20483;-52
2023/06/23 06:52:15;;;;;;;0.70;0.70;;;22.40;59.20;;;;;;8299906;28;20034;-53
2023/06/23 06:56:15;;;;;;;;;;;22.30;59.70;;;;;;8300566;28;20353;-51
2023/06/23 07:00:18;;;;;;;0.60;0.60;;;22.40;59.20;;;;;;8300650;28;20327;-51
2023/06/23 07:04:19;;;;;;;0.80;0.80;;;22.40;59.20;;;;;;8300299;28;20152;-52
2023/06/23 07:08:20;;;;;;;0.60;0.60;;;22.40;59.20;;;;;;8300643;28;20087;-53
2023/06/23 07:12:23;;;;;;;0.63;0.63;;;22.30;59.20;;;;;;8299150;28;20080;-51
2023/06/23 07:16:24;;;;;;;0.50;0.50;;;22.30;59.20;;;;;;8300508;28;20034;-53
2023/06/23 07:20:25;;;;;;;0.80;0.77;;;22.30;59.20;;;;;;8299237;28;20041;-52
2023/06/23 07:24:25;;;;;;;0.77;0.70;;;22.30;59.20;;;;;;8299991;28;20037;-52
2023/06/23 07:28:26;;;;;;;0.93;0.70;;;22.30;59.20;;;;;;8299015;28;20038;-51
2023/06/23 07:32:27;;;;;;;0.85;0.85;;;22.30;59.20;;;;;;8299786;28;20048;-53
2023/06/23 07:36:27;;;;;;;0.95;0.77;;;22.30;59.20;;;;;;8298693;28;20029;-52
2023/06/23 07:40:28;;;;;;;1.27;0.90;;;22.30;59.20;;;;;;8299176;28;20034;-51
2023/06/23 07:44:31;;;;;;;0.77;0.77;;;22.30;59.20;;;;;;8297696;28;20038;-52
2023/06/23 07:48:32;;;;;;;0.80;0.65;;;22.30;59.20;;;;;;8298543;28;20041;-52
2023/06/23 07:52:32;;;;;;;0.75;0.75;;;22.30;59.20;;;;;;8299380;28;20045;-51
2023/06/23 07:56:33;;;;;;;0.73;0.68;;;22.30;59.20;;;;;;8296522;28;20111;-52
2023/06/23 08:00:34;;;;;;;0.80;0.68;;;22.30;59.20;;;;;;8299148;28;20030;-51
2023/06/23 08:04:35;;;;;;;;;;;22.30;59.20;;;;;;8298348;28;20372;-52
2023/06/23 08:08:35;;;;;;;0.80;0.70;;;22.30;59.20;;;;;;8297679;28;20152;-52
2023/06/23 08:12:37;;;;;;;0.60;0.60;;;22.30;59.20;;;;;;8297299;28;20034;-53
2023/06/23 08:16:38;;;;;;;0.73;0.68;;;22.30;59.20;;;;;;8298459;28;20105;-50
2023/06/23 08:20:39;;;;;;;0.70;0.70;;;22.30;59.20;;;;;;8298137;28;20041;-52
2023/06/23 08:24:40;;;;;;;1.33;0.95;;;22.30;59.20;;;;;;8298228;28;20034;-51
2023/06/23 08:28:40;;;;;;;0.93;0.75;;;22.30;59.20;;;;;;8298399;28;20022;-51
2023/06/23 08:32:41;;;;;;;0.70;0.70;;;22.30;59.20;;;;;;8296838;28;20664;-51
2023/06/23 08:36:42;;;;;;;0.80;0.80;;;22.30;59.20;;;;;;8297979;28;20096;-51
2023/06/23 08:40:42;;;;;;;0.65;0.65;;;22.30;59.20;;;;;;8296816;28;20117;-51
2023/06/23 08:44:47;;;;;;;0.90;0.88;;;22.30;59.20;;;;;;8297658;28;20042;-50
2023/06/23 08:48:51;;;;;;;0.80;0.80;;;22.30;59.20;;;;;;8295822;28;20026;-51
2023/06/23 08:52:52;;;;;;;0.93;0.70;;;22.30;59.20;;;;;;8297438;28;20031;-51
2023/06/23 08:56:52;;;;;;;;;;;22.30;59.20;;;;;;8297045;28;20039;-51
2023/06/23 09:00:54;;;;;;;0.90;0.77;;;22.30;59.20;;;;;;8296545;28;19909;-52
2023/06/23 09:04:54;;;;;;;0.80;0.80;;;22.30;59.20;;;;;;8295385;28;20439;-51
2023/06/23 09:08:56;;;;;;;0.73;0.73;;;22.30;59.20;;;;;;8296839;28;20054;-52
2023/06/23 09:13:27;;;;;;;0.80;0.80;;;22.30;59.20;;;;;;8296934;28;20029;-51
2023/06/23 09:17:29;;;;;;;0.70;0.70;;;22.30;59.20;;;;;;8295606;28;20495;-52
2023/06/23 09:21:30;;;;;;;0.80;0.80;;;22.30;59.20;;;;;;8297085;28;20475;-52
2023/06/23 09:25:37;;;;;;;;;;;22.40;59.30;;;;;;8296652;28;20034;-51
2023/06/23 09:29:38;;;;;;;0.80;0.80;;;22.30;59.20;;;;;;8268852;28;19936;-52
2023/06/23 09:33:58;;;;;;;0.75;0.60;;;22.30;59.20;;;;;;8264224;28;20174;-51
2023/06/23 09:38:02;;;;;;;0.93;0.90;;;22.30;59.20;;;;;;8262586;28;20042;-51
2023/06/23 09:42:05;;;;;;;0.80;0.80;;;22.30;59.20;;;;;;8264065;28;20038;-51
2023/06/23 09:46:11;;;;;;;0.77;0.70;;;22.30;59.20;;;;;;8262509;28;20046;-51
2023/06/23 09:50:16;;;;;;;0.75;0.70;;;22.30;59.20;;;;;;8263493;28;20058;-51
2023/06/23 09:54:31;;;;;;;0.77;0.63;;;22.30;59.20;;;;;;8278135;28;20085;-52
2023/06/23 09:58:36;;;;;;;0.60;0.60;;;22.30;59.20;;;;;;8263933;28;20033;-52
2023/06/23 10:02:40;;;;;;;0.80;0.80;;;22.30;59.20;;;;;;8270516;28;20650;-51
2023/06/23 10:06:41;;;;;;;0.82;0.70;;;22.30;59.30;;;;;;8268927;28;20448;-51
2023/06/23 10:10:45;;;;;;;0.85;0.77;;;22.30;59.20;;;;;;8270387;28;20042;-51
2023/06/23 10:14:46;;;;;;;0.98;0.82;;;22.30;59.20;;;;;;8269101;28;20026;-51
2023/06/23 10:18:47;;;;;;;0.98;0.85;;;22.30;59.20;;;;;;8269330;28;20156;-52
2023/06/23 10:22:49;;;;;;;1.13;0.70;;;22.30;59.20;;;;;;8269012;28;20092;-52
2023/06/23 10:26:52;;;;;;;0.60;0.60;;;22.30;59.20;;;;;;8273406;28;20080;-51
2023/06/23 10:30:53;;;;;;;0.73;0.73;;;22.30;59.20;;;;;;8302181;28;20034;-52
2023/06/23 10:35:08;;;;;;;0.60;0.60;;;22.30;59.20;;;;;;8300401;28;20503;-52
2023/06/23 10:39:10;;;;;;;0.80;0.70;;;22.30;59.20;;;;;;8301634;28;20041;-52
2023/06/23 10:43:11;;;;;;;0.63;0.63;;;22.30;59.20;;;;;;8300149;28;20049;-52
2023/06/23 10:47:12;;;;;;;;;;;22.30;59.20;;;;;;8301604;28;20036;-52
2023/06/23 10:51:13;;;;;;;0.82;0.70;;;22.30;59.20;;;;;;8299332;28;19909;-51
2023/06/23 10:55:33;;;;;;;;;;;22.30;59.20;;;;;;8301162;28;20045;-50
2023/06/23 10:59:33;;;;;;;0.68;0.50;;;22.30;59.20;;;;;;8275302;28;19906;-52
2023/06/23 11:03:38;;;;;;;0.70;0.60;;;22.30;59.20;;;;;;8267179;28;20054;-51
2023/06/23 11:08:02;;;;;;;0.60;0.60;;;22.30;59.20;;;;;;8268202;28;20049;-52
2023/06/23 11:12:38;;;;;;;1.05;0.70;;;22.30;59.20;;;;;;8266828;28;20109;-52
2023/06/23 11:16:39;;;;;;;0.85;0.85;;;22.30;59.20;;;;;;8266945;28;20026;-51
2023/06/23 11:20:43;;;;;;;0.60;0.60;;;22.30;59.10;;;;;;8268013;28;20057;-51
2023/06/23 11:24:54;;;;;;;0.90;0.90;;;22.30;59.20;;;;;;8266593;28;20039;-51
2023/06/23 11:28:55;;;;;;;0.77;0.70;;;22.30;59.20;;;;;;8288129;28;20128;-51
2023/06/23 11:33:24;;;;;;;0.77;0.77;;;22.30;59.20;;;;;;8299594;28;20034;-52
2023/06/23 11:37:31;;;;;;;0.80;0.80;;;22.30;59.20;;;;;;8298596;28;20026;-50
2023/06/23 11:41:32;;;;;;;0.65;0.60;;;22.30;59.20;;;;;;8298682;28;20084;-51
2023/06/23 11:45:33;;;;;;;1.00;0.90;;;22.30;59.10;;;;;;8298375;28;20034;-52
2023/06/23 11:49:36;;;;;;;1.10;0.77;;;22.30;59.10;;;;;;8300322;28;20472;-52
2023/06/23 11:53:40;;;;;;;0.90;0.80;;;22.30;59.10;;;;;;8298822;28;20285;-53
2023/06/23 11:57:40;;;;;;;0.60;0.60;;;22.30;59.10;;;;;;8288921;28;20030;-52
2023/06/23 12:01:41;;;;;;;0.77;0.77;;;22.30;59.60;;;;;;8266538;28;20031;-52
2023/06/23 12:05:42;;;;;;;0.80;0.80;;;22.30;59.10;;;;;;8265087;28;20161;-53
2023/06/23 12:09:43;;;;;;;0.70;0.70;;;22.40;59.10;;;;;;8266288;28;20058;-52
2023/06/23 12:13:48;;;;;;;0.63;0.60;;;22.30;59.10;;;;;;8265147;28;20053;-51
2023/06/23 12:17:49;;;;;;;0.70;0.70;;;22.30;59.10;;;;;;8266319;28;20105;-52
2023/06/23 12:21:49;;;;;;;0.75;0.68;;;22.30;59.10;;;;;;8264654;28;20030;-50
2023/06/23 12:25:50;;;;;;;0.70;0.63;;;22.30;59.10;;;;;;8265849;28;20046;-52
2023/06/23 12:29:51;;;;;;;0.73;0.73;;;22.30;59.10;;;;;;8293746;28;20048;-51
2023/06/23 12:33:51;;;;;;;0.80;0.80;;;22.40;59.10;;;;;;8297223;28;20079;-53
2023/06/23 12:37:52;;;;;;;0.52;0.52;;;22.30;59.10;;;;;;8298116;28;20030;-50
2023/06/23 12:41:54;;;;;;;;;;;22.30;59.10;;;;;;8296973;28;20040;-52
2023/06/23 12:45:55;;;;;;;0.70;0.70;;;22.30;59.10;;;;;;8297622;28;19905;-51
2023/06/23 12:50:06;;;;;;;0.80;0.73;;;22.30;59.10;;;;;;8311698;28;20113;-52
2023/06/23 12:54:06;;;;;;;0.60;0.60;;;22.40;59.10;;;;;;8297802;28;20472;-51
2023/06/23 12:58:07;;;;;;;0.80;0.60;;;22.30;59.10;;;;;;8296226;28;20435;-51
2023/06/23 13:02:08;;;;;;;1.13;0.80;;;22.40;59.10;;;;;;8297454;28;20042;-52
2023/06/23 13:06:09;;;;;;;0.73;0.60;;;22.40;59.00;;;;;;8296578;28;20479;-52
2023/06/23 13:10:10;;;;;;;0.60;0.60;;;22.40;59.00;;;;;;8296522;28;20488;-51
2023/06/23 13:14:11;;;;;;;0.80;0.68;;;22.40;59.00;;;;;;8297144;28;20248;-49
2023/06/23 13:18:13;;;;;;;0.65;0.65;;;22.40;59.00;;;;;;8295919;28;20037;-52
2023/06/23 13:22:14;;;;;;;0.60;0.50;;;22.40;59.00;;;;;;8297273;28;20092;-51
2023/06/23 13:26:15;;;;;;;1.05;0.73;;;22.40;59.50;;;;;;8310874;28;20034;-53
2023/06/23 13:30:16;;;;;;;0.70;0.70;;;22.40;59.00;;;;;;8296785;28;20121;-50
2023/06/23 13:34:16;;;;;;;0.70;0.63;;;22.40;59.00;;;;;;8310461;28;20045;-52
2023/06/23 13:38:17;;;;;;;0.68;0.60;;;22.40;59.00;;;;;;8296778;28;20034;-51
2023/06/23 13:42:18;;;;;;;0.80;0.70;;;22.40;59.00;;;;;;8296310;28;20034;-51
2023/06/23 13:46:19;;;;;;;0.70;0.70;;;22.40;59.00;;;;;;8297640;28;20036;-50
2023/06/23 13:50:20;;;;;;;0.95;0.73;;;22.40;59.00;;;;;;8296368;28;20044;-51
2023/06/23 13:54:22;;;;;;;;;;;22.40;59.00;;;;;;8297052;28;20065;-53
2023/06/23 13:58:23;;;;;;;0.70;0.70;;;22.40;59.00;;;;;;8297089;28;20326;-52
2023/06/23 14:02:23;;;;;;;0.90;0.77;;;22.40;59.00;;;;;;8293764;28;20391;-51
2023/06/23 14:06:24;;;;;;;0.70;0.63;;;22.40;59.00;;;;;;8293829;28;20045;-51
2023/06/23 14:10:25;;;;;;;0.60;0.50;;;22.40;59.00;;;;;;8293716;28;20054;-50
2023/06/23 14:14:25;;;;;;;0.75;0.70;;;22.40;59.00;;;;;;8295198;28;20113;-52
2023/06/23 14:18:26;;;;;;;0.82;0.80;;;22.40;59.00;;;;;;8295072;28;20030;-51
2023/06/23 14:22:27;;;;;;;0.60;0.60;;;22.40;59.00;;;;;;8296324;28;20044;-49
2023/06/23 14:26:28;;;;;;;0.70;0.70;;;22.40;59.00;;;;;;8293822;28;20037;-52
2023/06/23 14:30:28;;;;;;;0.70;0.70;;;22.40;59.00;;;;;;8295763;28;20729;-51
2023/06/23 14:34:29;;;;;;;0.75;0.65;;;22.40;59.00;;;;;;8293832;28;20132;-52
2023/06/23 14:38:30;;;;;;;0.40;0.40;;;22.40;59.00;;;;;;8295450;28;20061;-50
2023/06/23 14:42:30;;;;;;;0.60;0.60;;;22.40;59.00;;;;;;8295665;28;20061;-51
2023/06/23 14:46:31;;;;;;;0.60;0.60;;;22.40;59.00;;;;;;8296506;28;20439;-52
2023/06/23 14:50:33;;;;;;;0.68;0.68;;;22.40;58.90;;;;;;8301182;28;20310;-51
2023/06/23 14:54:34;;;;;;;0.65;0.63;;;22.40;58.90;;;;;;8299935;28;20034;-52
2023/06/23 14:58:35;;;;;;;0.70;0.70;;;22.40;59.00;;;;;;8301104;28;20479;-52
2023/06/23 15:02:35;;;;;;;0.68;0.68;;;22.40;58.90;;;;;;8299944;28;20076;-51
2023/06/23 15:06:37;;;;;;;0.43;0.43;;;22.40;58.90;;;;;;8300845;28;20034;-52
2023/06/23 15:10:37;;;;;;;0.68;0.60;;;22.50;59.00;;;;;;8299306;28;20128;-51
2023/06/23 15:14:39;;;;;;;0.80;0.70;;;22.50;59.00;;;;;;8301152;28;20038;-52
2023/06/23 15:18:40;;;;;;;0.50;0.50;;;22.40;59.00;;;;;;8299767;28;20403;-50
2023/06/23 15:22:41;;;;;;;0.80;0.70;;;22.40;59.00;;;;;;8299993;28;20321;-51
2023/06/23 15:26:42;;;;;;;0.52;0.50;;;22.40;58.90;;;;;;8299969;28;20030;-51
2023/06/23 15:30:43;;;;;;;0.70;0.60;;;22.40;59.00;;;;;;8297540;28;20030;-51
2023/06/23 15:34:43;;;;;;;0.80;0.70;;;22.40;59.00;;;;;;8300044;28;20377;-51
2023/06/23 15:38:44;;;;;;;0.70;0.50;;;22.40;59.00;;;;;;8298489;28;20030;-51
2023/06/23 15:42:44;;;;;;;0.73;0.65;;;22.40;59.00;;;;;;8299742;28;20061;-51
2023/06/23 15:46:45;;;;;;;0.43;0.43;;;22.40;58.90;;;;;;8298272;28;20030;-50
2023/06/23 15:50:46;;;;;;;0.43;0.43;;;22.40;58.90;;;;;;8299346;28;20400;-53
2023/06/23 15:54:46;;;;;;;0.60;0.60;;;22.40;58.90;;;;;;8298467;28;20038;-51
2023/06/23 15:58:47;;;;;;;0.70;0.70;;;22.40;58.90;;;;;;8298201;28;20207;-52
2023/06/23 16:02:51;;;;;;;0.50;0.50;;;22.40;58.90;;;;;;8297060;28;20056;-52
2023/06/23 16:06:52;;;;;;;0.65;0.65;;;22.40;58.90;;;;;;8298946;28;20038;-51
2023/06/23 16:10:52;;;;;;;0.47;0.47;;;22.40;58.90;;;;;;8298675;28;20043;-51
2023/06/23 16:14:53;;;;;;;0.80;0.80;;;22.50;59.00;;;;;;8297374;28;20040;-51
2023/06/23 16:18:57;;;;;;;0.63;0.60;;;22.40;58.90;;;;;;8298613;28;20032;-51
2023/06/23 16:22:57;;;;;;;0.70;0.70;;;22.40;58.90;;;;;;8297122;28;20026;-49
2023/06/23 16:26:58;;;;;;;0.45;0.45;;;22.40;58.90;;;;;;8298183;28;20672;-51
2023/06/23 16:30:59;;;;;;;0.52;0.52;;;22.40;58.90;;;;;;8296794;28;20037;-51
2023/06/23 16:34:59;;;;;;;0.52;0.52;;;22.40;58.90;;;;;;8298438;28;20030;-52
2023/06/23 16:39:00;;;;;;;0.95;0.70;;;22.40;58.90;;;;;;8297266;28;20034;-52
2023/06/23 16:43:02;;;;;;;0.73;0.65;;;22.40;58.90;;;;;;8297365;28;20026;-51
2023/06/23 16:47:04;;;;;;;0.50;0.50;;;22.40;58.90;;;;;;8313063;28;20080;-50
2023/06/23 16:51:05;;;;;;;0.50;0.50;;;22.40;59.00;;;;;;8296243;28;20040;-51
2023/06/23 16:55:06;;;;;;;0.60;0.60;;;22.40;59.00;;;;;;8297625;28;20030;-51
2023/06/23 16:59:07;;;;;;;0.60;0.60;;;22.40;59.00;;;;;;8296409;28;20038;-53
2023/06/23 17:03:08;;;;;;;0.60;0.60;;;22.40;59.00;;;;;;8297570;28;20037;-52
2023/06/23 17:07:09;;;;;;;0.80;0.80;;;22.40;59.00;;;;;;8295804;28;20038;-51
2023/06/23 17:11:10;;;;;;;0.80;0.80;;;22.40;58.90;;;;;;8295971;28;20407;-51
2023/06/23 17:15:11;;;;;;;;;;;22.40;58.90;;;;;;8296332;28;20040;-53
2023/06/23 17:19:11;;;;;;;0.77;0.70;;;22.40;58.90;;;;;;8297027;28;19909;-51
2023/06/23 17:23:12;;;;;;;0.50;0.50;;;22.40;58.90;;;;;;8296412;28;20038;-51
2023/06/23 17:27:13;;;;;;;0.57;0.57;;;22.40;58.90;;;;;;8296200;28;20424;-52
2023/06/23 17:31:13;;;;;;;0.50;0.47;;;22.40;58.90;;;;;;8297058;28;20045;-52
2023/06/23 17:35:14;;;;;;;0.68;0.65;;;22.40;58.90;;;;;;8295330;28;20029;-52
2023/06/23 17:39:15;;;;;;;0.63;0.63;;;22.40;58.90;;;;;;8296704;28;20022;-52
2023/06/23 17:43:15;;;;;;;0.57;0.57;;;22.40;58.90;;;;;;8295575;28;20096;-50
2023/06/23 17:47:16;;;;;;;0.77;0.60;;;22.40;58.90;;;;;;8295948;28;20488;-50
2023/06/23 17:51:17;;;;;;;0.60;0.60;;;22.40;58.90;;;;;;8295090;28;20207;-51
2023/06/23 17:55:17;;;;;;;0.60;0.60;;;22.40;58.90;;;;;;8296997;28;20095;-52
2023/06/23 17:59:18;;;;;;;0.82;0.68;;;22.40;58.90;;;;;;8295060;28;20104;-52
2023/06/23 18:03:19;;;;;;;0.73;0.70;;;22.40;58.90;;;;;;8296513;28;20120;-52
2023/06/23 18:07:20;;;;;;;0.68;0.68;;;22.40;59.00;;;;;;8311071;28;20052;-51
2023/06/23 18:11:21;;;;;;;0.70;0.70;;;22.40;58.90;;;;;;8295200;28;20424;-51
2023/06/23 18:15:25;;;;;;;0.47;0.47;;;22.40;59.00;;;;;;8295842;28;20034;-52
2023/06/23 18:19:25;;;;;;;0.63;0.50;;;22.40;58.90;;;;;;8295820;28;20105;-53
2023/06/23 18:23:26;;;;;;;0.60;0.60;;;22.40;58.90;;;;;;8302261;28;20038;-52
2023/06/23 18:27:27;;;;;;;1.48;0.70;;;22.40;58.90;;;;;;8300918;28;20038;-51
2023/06/23 18:31:27;;;;;;;0.52;0.52;;;22.40;58.90;;;;;;8301862;28;20480;-51
2023/06/23 18:35:28;;;;;;;0.50;0.50;;;22.40;58.90;;;;;;8300667;28;20046;-51
2023/06/23 18:39:28;;;;;;;0.77;0.52;;;22.40;58.90;;;;;;8301810;28;20387;-52
2023/06/23 18:43:29;;;;;;;0.70;0.50;;;22.40;58.90;;;;;;8300701;28;20120;-51
2023/06/23 18:47:30;;;;;;;0.50;0.50;;;22.40;58.90;;;;;;8301669;28;20037;-53
2023/06/23 18:51:31;;;;;;;0.55;0.55;;;22.40;58.90;;;;;;8300685;28;20037;-52
2023/06/23 18:55:31;;;;;;;0.60;0.60;;;22.40;58.90;;;;;;8299301;28;20128;-53
2023/06/23 18:59:32;;;;;;;0.50;0.50;;;22.40;58.90;;;;;;8301139;28;20105;-52
2023/06/23 19:03:33;;;;;;;0.95;0.93;;;22.40;58.90;;;;;;8299762;28;20037;-51
2023/06/23 19:07:33;;;;;;;0.63;0.60;;;22.40;58.90;;;;;;8300964;28;20050;-52
2023/06/23 19:11:34;;;;;;;0.65;0.60;;;22.40;58.90;;;;;;8298405;28;20376;-52
2023/06/23 19:15:35;;;;;;;0.40;0.40;;;22.40;58.90;;;;;;8299620;28;20041;-52
2023/06/23 19:19:40;;;;;;;0.63;0.63;;;22.40;58.90;;;;;;8299037;28;20036;-52
2023/06/23 19:23:41;;;;;;;0.57;0.50;;;22.40;58.90;;;;;;8300494;28;20073;-51
2023/06/23 19:27:41;;;;;;;;;;;22.40;58.90;;;;;;8300204;28;20033;-52
2023/06/23 19:31:42;;;;;;;0.67;0.67;;;22.40;59.00;;;;;;8298470;28;20407;-50
2023/06/23 19:35:43;;;;;;;0.45;0.45;;;22.30;58.90;;;;;;8299618;28;20014;-51
2023/06/23 19:39:44;;;;;;;0.50;0.50;;;22.40;59.00;;;;;;8299066;28;20044;-53
2023/06/23 19:43:44;;;;;;;0.70;0.70;;;22.40;59.00;;;;;;8299619;28;20399;-51
2023/06/23 19:47:45;;;;;;;0.60;0.57;;;22.40;59.00;;;;;;8298141;28;20034;-51
2023/06/23 19:51:46;;;;;;;0.60;0.60;;;22.40;58.90;;;;;;8299404;28;20571;-52
2023/06/23 19:55:47;;;;;;;0.40;0.40;;;22.40;58.90;;;;;;8298120;28;20021;-51
2023/06/23 19:59:48;;;;;;;0.52;0.52;;;22.40;58.90;;;;;;8299277;28;20026;-53
2023/06/23 20:03:48;;;;;;;;;;;22.40;58.90;;;;;;8298355;28;20084;-52
2023/06/23 20:07:51;;;;;;;0.90;0.60;;;22.40;58.90;;;;;;8299109;28;19913;-51
2023/06/23 20:11:51;;;;;;;0.50;0.50;;;22.40;58.90;;;;;;8298047;28;20041;-51
2023/06/23 20:15:52;;;;;;;0.60;0.60;;;22.40;58.90;;;;;;8297965;28;20054;-51
2023/06/23 20:19:53;;;;;;;0.50;0.50;;;22.40;58.90;;;;;;8298496;28;20030;-51
2023/06/23 20:23:53;;;;;;;0.60;0.60;;;22.40;58.90;;;;;;8297215;28;20030;-51
2023/06/23 20:27:54;;;;;;;0.50;0.50;;;22.40;58.90;;;;;;8298080;28;20044;-51
2023/06/23 20:31:55;;;;;;;0.50;0.50;;;22.40;58.90;;;;;;8296697;28;20038;-53
2023/06/23 20:35:59;;;;;;;0.60;0.60;;;22.40;58.90;;;;;;8298053;28;20030;-52
2023/06/23 20:40:00;;;;;;;0.80;0.70;;;22.40;58.90;;;;;;8296327;28;20132;-53
2023/06/23 20:44:01;;;;;;;0.50;0.50;;;22.40;58.90;;;;;;8297681;28;20038;-52
2023/06/23 20:48:01;;;;;;;0.70;0.70;;;22.40;59.00;;;;;;8296107;28;20663;-51
2023/06/23 20:52:02;;;;;;;0.50;0.50;;;22.40;59.00;;;;;;8297496;28;20088;-52
2023/06/23 20:56:03;;;;;;;0.52;0.52;;;22.30;58.90;;;;;;8296933;28;20077;-51
2023/06/23 21:00:05;;;;;;;0.55;0.55;;;22.40;59.00;;;;;;8297109;28;20496;-51
2023/06/23 21:04:05;;;;;;;0.60;0.60;;;22.40;59.00;;;;;;8297918;28;20460;-52
2023/06/23 21:08:06;;;;;;;0.50;0.50;;;22.40;59.00;;;;;;8295961;28;20488;-53